Flight Training


We provide structured training required to obtain a pilots certificate ranging from a Private Pilot up to ATP flying for the major airlines.

If your desire to fly is for personal pleasure the first step is to find a professional FAA licensed flight instructor to begin your journey.

The one-hour introductory flight with an instructor lasts one hour and features a log book and a six-month subscription to Flight Training magazine. After flying you to the training area, your instructor will let you test the controls. Call us now

 

Aviation Weather

Available data for KLDJ from the past 2 hours
LINDEN, NJ
Metar
KLDJ 170955Z AUTO 00000KT 10SM CLR 05/00 A3030 RMK AO2 T00501002

09:55 UTC

Wind: 0° 0kt

Visibility: 10 SM

Sky:

Temp: 5 deg C / 41 deg F

Dewpoint: 0 deg C / 32 deg F

Pressure: 30.3 inHg


Available data for KEWR from the past hour
NEWARK, NJ
TAF
KEWR 170836Z 1709/1812 34009KT P6SM SKC FM171400 01007KT P6SM SKC FM171700 31005KT P6SM SKC FM171900 27005KT P6SM SKC FM172100 22006KT P6SM SKC

Our planes

Some of our students